sensor_id;sensor_type;location;lat;lon;timestamp;P1;durP1;ratioP1;P2;durP2;ratioP2
67274;SDS011;55463;52.324;5.122;2023-08-01T00:02:17;12.15;;;3.38;;
67274;SDS011;55463;52.324;5.122;2023-08-01T00:04:43;7.47;;;3.45;;
67274;SDS011;55463;52.324;5.122;2023-08-01T00:07:08;8.43;;;4.00;;
67274;SDS011;55463;52.324;5.122;2023-08-01T00:09:33;8.65;;;3.80;;
67274;SDS011;55463;52.324;5.122;2023-08-01T00:11:59;6.68;;;3.30;;
67274;SDS011;55463;52.324;5.122;2023-08-01T00:14:24;8.20;;;3.28;;
67274;SDS011;55463;52.324;5.122;2023-08-01T00:16:50;8.80;;;3.67;;
67274;SDS011;55463;52.324;5.122;2023-08-01T00:19:16;7.40;;;3.45;;
67274;SDS011;55463;52.324;5.122;2023-08-01T00:21:41;11.43;;;3.60;;
67274;SDS011;55463;52.324;5.122;2023-08-01T00:24:07;13.98;;;3.60;;
67274;SDS011;55463;52.324;5.122;2023-08-01T00:26:33;10.43;;;3.35;;
67274;SDS011;55463;52.324;5.122;2023-08-01T00:28:58;6.63;;;3.20;;
67274;SDS011;55463;52.324;5.122;2023-08-01T00:31:24;8.52;;;4.10;;
67274;SDS011;55463;52.324;5.122;2023-08-01T00:33:49;9.80;;;3.60;;
67274;SDS011;55463;52.324;5.122;2023-08-01T00:36:15;10.45;;;3.60;;
67274;SDS011;55463;52.324;5.122;2023-08-01T00:38:40;9.40;;;3.83;;
67274;SDS011;55463;52.324;5.122;2023-08-01T00:41:08;15.00;;;3.50;;
67274;SDS011;55463;52.324;5.122;2023-08-01T00:43:33;11.32;;;4.07;;
67274;SDS011;55463;52.324;5.122;2023-08-01T00:45:59;11.32;;;4.10;;
67274;SDS011;55463;52.324;5.122;2023-08-01T00:48:29;9.50;;;3.42;;
67274;SDS011;55463;52.324;5.122;2023-08-01T00:50:55;12.57;;;3.50;;
67274;SDS011;55463;52.324;5.122;2023-08-01T00:53:24;10.25;;;3.95;;
67274;SDS011;55463;52.324;5.122;2023-08-01T00:55:51;6.65;;;3.15;;
67274;SDS011;55463;52.324;5.122;2023-08-01T00:58:18;10.18;;;3.50;;
67274;SDS011;55463;52.324;5.122;2023-08-01T01:00:43;13.15;;;3.58;;
67274;SDS011;55463;52.324;5.122;2023-08-01T01:03:10;7.15;;;3.50;;
67274;SDS011;55463;52.324;5.122;2023-08-01T01:05:36;12.32;;;3.80;;
67274;SDS011;55463;52.324;5.122;2023-08-01T01:08:06;13.20;;;3.75;;
67274;SDS011;55463;52.324;5.122;2023-08-01T01:10:32;15.05;;;4.10;;
67274;SDS011;55463;52.324;5.122;2023-08-01T01:12:57;7.95;;;3.42;;
67274;SDS011;55463;52.324;5.122;2023-08-01T01:15:23;13.93;;;3.80;;
67274;SDS011;55463;52.324;5.122;2023-08-01T01:17:48;10.98;;;3.58;;
67274;SDS011;55463;52.324;5.122;2023-08-01T01:20:14;14.95;;;3.53;;
67274;SDS011;55463;52.324;5.122;2023-08-01T01:22:39;9.95;;;3.58;;
67274;SDS011;55463;52.324;5.122;2023-08-01T01:25:06;6.82;;;3.88;;
67274;SDS011;55463;52.324;5.122;2023-08-01T01:27:33;11.07;;;3.72;;
67274;SDS011;55463;52.324;5.122;2023-08-01T01:30:01;15.63;;;4.75;;
67274;SDS011;55463;52.324;5.122;2023-08-01T01:32:28;6.70;;;3.20;;
67274;SDS011;55463;52.324;5.122;2023-08-01T01:34:54;8.65;;;3.60;;
67274;SDS011;55463;52.324;5.122;2023-08-01T01:37:19;14.38;;;4.20;;
67274;SDS011;55463;52.324;5.122;2023-08-01T01:39:45;12.40;;;4.50;;
67274;SDS011;55463;52.324;5.122;2023-08-01T01:42:10;13.25;;;4.63;;
67274;SDS011;55463;52.324;5.122;2023-08-01T01:44:38;16.08;;;4.75;;
67274;SDS011;55463;52.324;5.122;2023-08-01T01:47:03;12.05;;;4.45;;
67274;SDS011;55463;52.324;5.122;2023-08-01T01:49:29;13.07;;;4.22;;
67274;SDS011;55463;52.324;5.122;2023-08-01T01:51:54;11.13;;;4.20;;
67274;SDS011;55463;52.324;5.122;2023-08-01T01:54:20;13.15;;;4.47;;
67274;SDS011;55463;52.324;5.122;2023-08-01T01:56:45;7.93;;;3.88;;
67274;SDS011;55463;52.324;5.122;2023-08-01T01:59:11;13.18;;;4.45;;
67274;SDS011;55463;52.324;5.122;2023-08-01T02:01:36;13.25;;;4.68;;
67274;SDS011;55463;52.324;5.122;2023-08-01T02:04:01;9.95;;;4.22;;
67274;SDS011;55463;52.324;5.122;2023-08-01T02:06:27;12.25;;;4.18;;
67274;SDS011;55463;52.324;5.122;2023-08-01T02:08:52;15.82;;;4.55;;
67274;SDS011;55463;52.324;5.122;2023-08-01T02:11:18;14.57;;;4.30;;
67274;SDS011;55463;52.324;5.122;2023-08-01T02:13:43;10.68;;;4.40;;
67274;SDS011;55463;52.324;5.122;2023-08-01T02:16:09;10.30;;;4.40;;
67274;SDS011;55463;52.324;5.122;2023-08-01T02:18:34;19.10;;;4.60;;
67274;SDS011;55463;52.324;5.122;2023-08-01T02:21:00;20.42;;;5.00;;
67274;SDS011;55463;52.324;5.122;2023-08-01T02:23:25;16.05;;;5.00;;
67274;SDS011;55463;52.324;5.122;2023-08-01T02:25:51;15.30;;;5.05;;
67274;SDS011;55463;52.324;5.122;2023-08-01T02:28:16;14.25;;;4.38;;
67274;SDS011;55463;52.324;5.122;2023-08-01T02:30:41;11.40;;;4.60;;
67274;SDS011;55463;52.324;5.122;2023-08-01T02:33:07;11.75;;;4.50;;
67274;SDS011;55463;52.324;5.122;2023-08-01T02:35:32;16.05;;;4.35;;
67274;SDS011;55463;52.324;5.122;2023-08-01T02:37:58;12.82;;;4.55;;
67274;SDS011;55463;52.324;5.122;2023-08-01T02:40:23;8.65;;;4.15;;
67274;SDS011;55463;52.324;5.122;2023-08-01T02:42:49;12.65;;;4.03;;
67274;SDS011;55463;52.324;5.122;2023-08-01T02:45:14;12.45;;;3.88;;
67274;SDS011;55463;52.324;5.122;2023-08-01T02:47:39;11.45;;;3.70;;
67274;SDS011;55463;52.324;5.122;2023-08-01T02:50:05;11.70;;;3.70;;
67274;SDS011;55463;52.324;5.122;2023-08-01T02:52:31;10.30;;;3.58;;
67274;SDS011;55463;52.324;5.122;2023-08-01T02:54:56;13.95;;;3.92;;
67274;SDS011;55463;52.324;5.122;2023-08-01T02:57:22;8.10;;;3.53;;
67274;SDS011;55463;52.324;5.122;2023-08-01T02:59:47;13.07;;;4.13;;
67274;SDS011;55463;52.324;5.122;2023-08-01T03:02:13;13.68;;;3.92;;
67274;SDS011;55463;52.324;5.122;2023-08-01T03:04:38;12.63;;;4.10;;
67274;SDS011;55463;52.324;5.122;2023-08-01T03:07:03;11.80;;;3.45;;
67274;SDS011;55463;52.324;5.122;2023-08-01T03:09:29;10.50;;;3.35;;
67274;SDS011;55463;52.324;5.122;2023-08-01T03:11:54;9.15;;;3.22;;
67274;SDS011;55463;52.324;5.122;2023-08-01T03:14:21;9.15;;;3.10;;
67274;SDS011;55463;52.324;5.122;2023-08-01T03:16:46;10.80;;;3.13;;
67274;SDS011;55463;52.324;5.122;2023-08-01T03:19:11;11.63;;;2.85;;
67274;SDS011;55463;52.324;5.122;2023-08-01T03:21:37;7.25;;;3.08;;
67274;SDS011;55463;52.324;5.122;2023-08-01T03:24:03;5.93;;;2.63;;
67274;SDS011;55463;52.324;5.122;2023-08-01T03:26:28;7.00;;;2.70;;
67274;SDS011;55463;52.324;5.122;2023-08-01T03:28:54;8.40;;;3.35;;
67274;SDS011;55463;52.324;5.122;2023-08-01T03:31:21;8.75;;;2.97;;
67274;SDS011;55463;52.324;5.122;2023-08-01T03:33:47;14.27;;;4.15;;
67274;SDS011;55463;52.324;5.122;2023-08-01T03:36:12;8.93;;;3.33;;
67274;SDS011;55463;52.324;5.122;2023-08-01T03:38:38;13.95;;;3.55;;
67274;SDS011;55463;52.324;5.122;2023-08-01T03:41:04;12.30;;;3.70;;
67274;SDS011;55463;52.324;5.122;2023-08-01T03:43:29;10.38;;;3.90;;
67274;SDS011;55463;52.324;5.122;2023-08-01T03:45:55;13.25;;;3.65;;
67274;SDS011;55463;52.324;5.122;2023-08-01T03:48:20;16.50;;;4.50;;
67274;SDS011;55463;52.324;5.122;2023-08-01T03:50:45;8.43;;;3.60;;
67274;SDS011;55463;52.324;5.122;2023-08-01T03:53:11;13.60;;;3.80;;
67274;SDS011;55463;52.324;5.122;2023-08-01T03:55:36;13.90;;;3.90;;
67274;SDS011;55463;52.324;5.122;2023-08-01T03:58:02;20.23;;;4.88;;
67274;SDS011;55463;52.324;5.122;2023-08-01T04:00:30;14.73;;;4.00;;
67274;SDS011;55463;52.324;5.122;2023-08-01T04:02:58;9.93;;;4.20;;
67274;SDS011;55463;52.324;5.122;2023-08-01T04:05:23;13.88;;;3.85;;
67274;SDS011;55463;52.324;5.122;2023-08-01T04:07:49;23.85;;;4.70;;
67274;SDS011;55463;52.324;5.122;2023-08-01T04:10:14;19.50;;;4.60;;
67274;SDS011;55463;52.324;5.122;2023-08-01T04:12:40;17.77;;;4.55;;
67274;SDS011;55463;52.324;5.122;2023-08-01T04:15:07;20.30;;;4.75;;
67274;SDS011;55463;52.324;5.122;2023-08-01T04:17:33;17.98;;;4.75;;
67274;SDS011;55463;52.324;5.122;2023-08-01T04:19:58;17.17;;;5.22;;
67274;SDS011;55463;52.324;5.122;2023-08-01T04:22:24;18.65;;;4.53;;
67274;SDS011;55463;52.324;5.122;2023-08-01T04:24:49;14.55;;;4.80;;
67274;SDS011;55463;52.324;5.122;2023-08-01T04:27:15;12.68;;;4.50;;
67274;SDS011;55463;52.324;5.122;2023-08-01T04:29:41;12.10;;;5.07;;
67274;SDS011;55463;52.324;5.122;2023-08-01T04:32:06;19.08;;;4.80;;
67274;SDS011;55463;52.324;5.122;2023-08-01T04:34:32;19.02;;;4.70;;
67274;SDS011;55463;52.324;5.122;2023-08-01T04:36:57;16.02;;;4.85;;
67274;SDS011;55463;52.324;5.122;2023-08-01T04:39:23;15.30;;;3.92;;
67274;SDS011;55463;52.324;5.122;2023-08-01T04:41:48;19.67;;;5.00;;
67274;SDS011;55463;52.324;5.122;2023-08-01T04:44:14;18.48;;;4.68;;
67274;SDS011;55463;52.324;5.122;2023-08-01T04:46:40;19.10;;;5.28;;
67274;SDS011;55463;52.324;5.122;2023-08-01T04:49:05;13.75;;;4.28;;
67274;SDS011;55463;52.324;5.122;2023-08-01T04:51:31;16.67;;;4.60;;
67274;SDS011;55463;52.324;5.122;2023-08-01T04:53:56;15.82;;;4.90;;
67274;SDS011;55463;52.324;5.122;2023-08-01T04:56:22;22.63;;;4.45;;
67274;SDS011;55463;52.324;5.122;2023-08-01T04:58:47;14.93;;;3.80;;
67274;SDS011;55463;52.324;5.122;2023-08-01T05:01:12;15.35;;;3.80;;
67274;SDS011;55463;52.324;5.122;2023-08-01T05:03:38;12.02;;;3.65;;
67274;SDS011;55463;52.324;5.122;2023-08-01T05:06:03;11.20;;;3.65;;
67274;SDS011;55463;52.324;5.122;2023-08-01T05:08:28;15.75;;;3.80;;
67274;SDS011;55463;52.324;5.122;2023-08-01T05:10:54;15.35;;;4.22;;
67274;SDS011;55463;52.324;5.122;2023-08-01T05:13:19;9.55;;;3.47;;
67274;SDS011;55463;52.324;5.122;2023-08-01T05:15:45;16.60;;;3.60;;
67274;SDS011;55463;52.324;5.122;2023-08-01T05:18:12;12.25;;;3.72;;
67274;SDS011;55463;52.324;5.122;2023-08-01T05:20:38;13.63;;;3.60;;
67274;SDS011;55463;52.324;5.122;2023-08-01T05:23:04;12.52;;;3.22;;
67274;SDS011;55463;52.324;5.122;2023-08-01T05:25:32;12.85;;;3.40;;
67274;SDS011;55463;52.324;5.122;2023-08-01T05:27:57;9.38;;;3.50;;
67274;SDS011;55463;52.324;5.122;2023-08-01T05:30:24;16.75;;;3.88;;
67274;SDS011;55463;52.324;5.122;2023-08-01T05:32:49;11.70;;;3.83;;
67274;SDS011;55463;52.324;5.122;2023-08-01T05:35:15;15.30;;;3.20;;
67274;SDS011;55463;52.324;5.122;2023-08-01T05:37:40;9.00;;;3.35;;
67274;SDS011;55463;52.324;5.122;2023-08-01T05:40:06;10.65;;;3.40;;
67274;SDS011;55463;52.324;5.122;2023-08-01T05:42:32;13.38;;;3.42;;
67274;SDS011;55463;52.324;5.122;2023-08-01T05:44:57;9.95;;;3.05;;
67274;SDS011;55463;52.324;5.122;2023-08-01T05:47:22;10.13;;;3.65;;
67274;SDS011;55463;52.324;5.122;2023-08-01T05:49:48;13.60;;;3.33;;
67274;SDS011;55463;52.324;5.122;2023-08-01T05:52:14;15.80;;;3.28;;
67274;SDS011;55463;52.324;5.122;2023-08-01T05:54:39;17.65;;;3.53;;
67274;SDS011;55463;52.324;5.122;2023-08-01T05:57:04;15.27;;;3.47;;
67274;SDS011;55463;52.324;5.122;2023-08-01T05:59:33;14.65;;;3.50;;
67274;SDS011;55463;52.324;5.122;2023-08-01T06:01:59;15.60;;;3.53;;
67274;SDS011;55463;52.324;5.122;2023-08-01T06:04:24;14.85;;;3.38;;
67274;SDS011;55463;52.324;5.122;2023-08-01T06:06:50;15.82;;;3.17;;
67274;SDS011;55463;52.324;5.122;2023-08-01T06:09:15;13.40;;;3.28;;
67274;SDS011;55463;52.324;5.122;2023-08-01T06:11:40;7.72;;;3.17;;
67274;SDS011;55463;52.324;5.122;2023-08-01T06:14:06;10.93;;;3.25;;
67274;SDS011;55463;52.324;5.122;2023-08-01T06:16:31;9.82;;;2.97;;
67274;SDS011;55463;52.324;5.122;2023-08-01T06:18:57;12.77;;;3.20;;
67274;SDS011;55463;52.324;5.122;2023-08-01T06:21:23;10.75;;;3.58;;
67274;SDS011;55463;52.324;5.122;2023-08-01T06:23:48;7.45;;;2.80;;
67274;SDS011;55463;52.324;5.122;2023-08-01T06:26:14;12.48;;;3.33;;
67274;SDS011;55463;52.324;5.122;2023-08-01T06:28:40;10.52;;;2.70;;
67274;SDS011;55463;52.324;5.122;2023-08-01T06:31:06;12.63;;;2.55;;
67274;SDS011;55463;52.324;5.122;2023-08-01T06:33:31;10.68;;;3.30;;
67274;SDS011;55463;52.324;5.122;2023-08-01T06:35:57;9.60;;;2.70;;
67274;SDS011;55463;52.324;5.122;2023-08-01T06:38:22;13.98;;;3.83;;
67274;SDS011;55463;52.324;5.122;2023-08-01T06:40:48;8.27;;;2.50;;
67274;SDS011;55463;52.324;5.122;2023-08-01T06:43:13;8.40;;;2.55;;
67274;SDS011;55463;52.324;5.122;2023-08-01T06:45:38;9.85;;;3.28;;
67274;SDS011;55463;52.324;5.122;2023-08-01T06:48:04;13.85;;;3.15;;
67274;SDS011;55463;52.324;5.122;2023-08-01T06:50:29;10.75;;;2.70;;
67274;SDS011;55463;52.324;5.122;2023-08-01T06:52:54;9.18;;;2.55;;
67274;SDS011;55463;52.324;5.122;2023-08-01T06:55:20;6.25;;;2.42;;
67274;SDS011;55463;52.324;5.122;2023-08-01T06:57:45;11.63;;;2.40;;
67274;SDS011;55463;52.324;5.122;2023-08-01T07:00:11;6.10;;;2.25;;
67274;SDS011;55463;52.324;5.122;2023-08-01T07:02:36;12.98;;;2.70;;
67274;SDS011;55463;52.324;5.122;2023-08-01T07:05:02;8.95;;;2.75;;
67274;SDS011;55463;52.324;5.122;2023-08-01T07:07:27;7.10;;;2.70;;
67274;SDS011;55463;52.324;5.122;2023-08-01T07:09:52;5.93;;;2.50;;
67274;SDS011;55463;52.324;5.122;2023-08-01T07:12:18;7.85;;;2.20;;
67274;SDS011;55463;52.324;5.122;2023-08-01T07:14:43;9.45;;;2.47;;
67274;SDS011;55463;52.324;5.122;2023-08-01T07:17:08;11.48;;;2.38;;
67274;SDS011;55463;52.324;5.122;2023-08-01T07:19:34;7.95;;;2.47;;
67274;SDS011;55463;52.324;5.122;2023-08-01T07:21:59;12.93;;;2.70;;
67274;SDS011;55463;52.324;5.122;2023-08-01T07:24:25;19.02;;;4.43;;
67274;SDS011;55463;52.324;5.122;2023-08-01T07:26:50;11.02;;;2.83;;
67274;SDS011;55463;52.324;5.122;2023-08-01T07:29:16;8.07;;;2.42;;
67274;SDS011;55463;52.324;5.122;2023-08-01T07:31:43;9.63;;;2.47;;
67274;SDS011;55463;52.324;5.122;2023-08-01T07:34:12;5.80;;;2.20;;
67274;SDS011;55463;52.324;5.122;2023-08-01T07:36:37;7.78;;;2.65;;
67274;SDS011;55463;52.324;5.122;2023-08-01T07:39:05;6.53;;;2.60;;
67274;SDS011;55463;52.324;5.122;2023-08-01T07:41:31;5.97;;;2.20;;
67274;SDS011;55463;52.324;5.122;2023-08-01T07:43:58;10.80;;;2.60;;
67274;SDS011;55463;52.324;5.122;2023-08-01T07:46:23;7.28;;;2.60;;
67274;SDS011;55463;52.324;5.122;2023-08-01T07:48:48;7.28;;;2.70;;
67274;SDS011;55463;52.324;5.122;2023-08-01T07:51:16;10.98;;;2.67;;
67274;SDS011;55463;52.324;5.122;2023-08-01T07:53:42;10.13;;;2.72;;
67274;SDS011;55463;52.324;5.122;2023-08-01T07:56:07;9.70;;;2.35;;
67274;SDS011;55463;52.324;5.122;2023-08-01T07:58:33;12.98;;;2.75;;
67274;SDS011;55463;52.324;5.122;2023-08-01T08:01:05;9.80;;;2.55;;
67274;SDS011;55463;52.324;5.122;2023-08-01T08:03:31;12.23;;;2.60;;
67274;SDS011;55463;52.324;5.122;2023-08-01T08:05:59;7.10;;;2.50;;
67274;SDS011;55463;52.324;5.122;2023-08-01T08:08:25;9.25;;;2.55;;
67274;SDS011;55463;52.324;5.122;2023-08-01T08:10:51;10.90;;;2.65;;
67274;SDS011;55463;52.324;5.122;2023-08-01T08:13:17;10.35;;;3.05;;
67274;SDS011;55463;52.324;5.122;2023-08-01T08:15:42;4.38;;;2.08;;
67274;SDS011;55463;52.324;5.122;2023-08-01T08:18:08;7.32;;;2.40;;
67274;SDS011;55463;52.324;5.122;2023-08-01T08:20:40;8.32;;;2.78;;
67274;SDS011;55463;52.324;5.122;2023-08-01T08:23:07;10.60;;;2.65;;
67274;SDS011;55463;52.324;5.122;2023-08-01T08:25:32;8.82;;;3.60;;
67274;SDS011;55463;52.324;5.122;2023-08-01T08:27:58;10.65;;;2.50;;
67274;SDS011;55463;52.324;5.122;2023-08-01T08:30:23;13.25;;;3.15;;
67274;SDS011;55463;52.324;5.122;2023-08-01T08:32:49;11.10;;;2.90;;
67274;SDS011;55463;52.324;5.122;2023-08-01T08:35:15;6.78;;;2.60;;
67274;SDS011;55463;52.324;5.122;2023-08-01T08:37:40;11.52;;;2.60;;
67274;SDS011;55463;52.324;5.122;2023-08-01T08:40:08;8.48;;;2.13;;
67274;SDS011;55463;52.324;5.122;2023-08-01T08:42:34;7.30;;;2.13;;
67274;SDS011;55463;52.324;5.122;2023-08-01T08:45:02;9.25;;;3.17;;
67274;SDS011;55463;52.324;5.122;2023-08-01T08:47:30;9.15;;;2.65;;
67274;SDS011;55463;52.324;5.122;2023-08-01T08:50:00;11.57;;;2.72;;
67274;SDS011;55463;52.324;5.122;2023-08-01T08:52:26;8.60;;;3.00;;
67274;SDS011;55463;52.324;5.122;2023-08-01T08:54:52;11.43;;;2.65;;
67274;SDS011;55463;52.324;5.122;2023-08-01T08:57:18;8.80;;;2.85;;
67274;SDS011;55463;52.324;5.122;2023-08-01T08:59:44;11.80;;;2.58;;
67274;SDS011;55463;52.324;5.122;2023-08-01T09:02:14;9.83;;;2.80;;
67274;SDS011;55463;52.324;5.122;2023-08-01T09:04:41;5.18;;;2.30;;
67274;SDS011;55463;52.324;5.122;2023-08-01T09:07:07;7.95;;;2.38;;
67274;SDS011;55463;52.324;5.122;2023-08-01T09:09:36;8.52;;;2.28;;
67274;SDS011;55463;52.324;5.122;2023-08-01T09:12:01;6.93;;;1.90;;
67274;SDS011;55463;52.324;5.122;2023-08-01T09:14:27;5.72;;;2.00;;
67274;SDS011;55463;52.324;5.122;2023-08-01T09:16:53;6.47;;;1.88;;
67274;SDS011;55463;52.324;5.122;2023-08-01T09:19:18;7.55;;;2.40;;
67274;SDS011;55463;52.324;5.122;2023-08-01T09:21:45;5.28;;;2.28;;
67274;SDS011;55463;52.324;5.122;2023-08-01T09:24:12;9.38;;;2.28;;
67274;SDS011;55463;52.324;5.122;2023-08-01T09:26:42;9.68;;;2.15;;
67274;SDS011;55463;52.324;5.122;2023-08-01T09:29:09;5.13;;;2.05;;
67274;SDS011;55463;52.324;5.122;2023-08-01T09:31:36;17.45;;;2.50;;
67274;SDS011;55463;52.324;5.122;2023-08-01T09:34:03;7.55;;;2.38;;
67274;SDS011;55463;52.324;5.122;2023-08-01T09:36:31;5.47;;;1.80;;
67274;SDS011;55463;52.324;5.122;2023-08-01T09:38:58;9.43;;;2.63;;
67274;SDS011;55463;52.324;5.122;2023-08-01T09:41:24;5.75;;;1.83;;
67274;SDS011;55463;52.324;5.122;2023-08-01T09:43:50;8.23;;;2.22;;
67274;SDS011;55463;52.324;5.122;2023-08-01T09:46:15;6.30;;;2.10;;
67274;SDS011;55463;52.324;5.122;2023-08-01T09:48:41;8.07;;;2.55;;
67274;SDS011;55463;52.324;5.122;2023-08-01T09:51:13;9.40;;;2.38;;
67274;SDS011;55463;52.324;5.122;2023-08-01T09:53:49;10.23;;;2.20;;
67274;SDS011;55463;52.324;5.122;2023-08-01T09:56:26;9.20;;;2.40;;
67274;SDS011;55463;52.324;5.122;2023-08-01T09:58:53;9.07;;;1.80;;
67274;SDS011;55463;52.324;5.122;2023-08-01T10:01:20;10.35;;;2.70;;
67274;SDS011;55463;52.324;5.122;2023-08-01T10:03:48;5.45;;;2.30;;
67274;SDS011;55463;52.324;5.122;2023-08-01T10:06:19;5.13;;;1.90;;
67274;SDS011;55463;52.324;5.122;2023-08-01T10:08:46;4.25;;;1.88;;
67274;SDS011;55463;52.324;5.122;2023-08-01T10:11:12;3.63;;;1.80;;
67274;SDS011;55463;52.324;5.122;2023-08-01T10:13:41;11.40;;;2.10;;
67274;SDS011;55463;52.324;5.122;2023-08-01T10:16:08;7.00;;;1.85;;
67274;SDS011;55463;52.324;5.122;2023-08-01T10:18:33;11.02;;;2.15;;
67274;SDS011;55463;52.324;5.122;2023-08-01T10:21:02;7.13;;;2.08;;
67274;SDS011;55463;52.324;5.122;2023-08-01T10:23:28;8.35;;;2.60;;
67274;SDS011;55463;52.324;5.122;2023-08-01T10:25:53;16.13;;;2.30;;
67274;SDS011;55463;52.324;5.122;2023-08-01T10:28:30;9.20;;;2.22;;
67274;SDS011;55463;52.324;5.122;2023-08-01T10:31:14;4.53;;;1.73;;
67274;SDS011;55463;52.324;5.122;2023-08-01T10:33:42;7.47;;;2.13;;
67274;SDS011;55463;52.324;5.122;2023-08-01T10:36:18;4.95;;;1.90;;
67274;SDS011;55463;52.324;5.122;2023-08-01T10:38:54;3.60;;;1.80;;
67274;SDS011;55463;52.324;5.122;2023-08-01T10:41:34;8.18;;;1.80;;
67274;SDS011;55463;52.324;5.122;2023-08-01T10:44:13;5.15;;;1.80;;
67274;SDS011;55463;52.324;5.122;2023-08-01T10:46:47;6.15;;;1.88;;
67274;SDS011;55463;52.324;5.122;2023-08-01T10:49:35;4.88;;;1.95;;
67274;SDS011;55463;52.324;5.122;2023-08-01T10:52:03;5.88;;;1.80;;
67274;SDS011;55463;52.324;5.122;2023-08-01T10:54:40;7.40;;;2.20;;
67274;SDS011;55463;52.324;5.122;2023-08-01T10:57:05;6.22;;;2.35;;
67274;SDS011;55463;52.324;5.122;2023-08-01T10:59:31;7.20;;;2.00;;
67274;SDS011;55463;52.324;5.122;2023-08-01T11:01:57;6.10;;;1.88;;
67274;SDS011;55463;52.324;5.122;2023-08-01T11:04:24;6.38;;;2.00;;
67274;SDS011;55463;52.324;5.122;2023-08-01T11:06:50;9.73;;;2.30;;
67274;SDS011;55463;52.324;5.122;2023-08-01T11:09:24;3.92;;;1.70;;
67274;SDS011;55463;52.324;5.122;2023-08-01T11:12:00;6.57;;;2.08;;
67274;SDS011;55463;52.324;5.122;2023-08-01T11:14:26;5.93;;;2.10;;
67274;SDS011;55463;52.324;5.122;2023-08-01T11:16:54;6.93;;;2.00;;
67274;SDS011;55463;52.324;5.122;2023-08-01T11:19:24;6.25;;;2.08;;
67274;SDS011;55463;52.324;5.122;2023-08-01T11:21:51;6.20;;;2.13;;
67274;SDS011;55463;52.324;5.122;2023-08-01T11:24:17;5.95;;;2.42;;
67274;SDS011;55463;52.324;5.122;2023-08-01T11:26:45;6.50;;;2.20;;
67274;SDS011;55463;52.324;5.122;2023-08-01T11:29:12;8.63;;;2.00;;
67274;SDS011;55463;52.324;5.122;2023-08-01T11:31:38;9.82;;;2.75;;
67274;SDS011;55463;52.324;5.122;2023-08-01T11:34:06;5.00;;;2.10;;
67274;SDS011;55463;52.324;5.122;2023-08-01T11:36:33;4.78;;;1.88;;
67274;SDS011;55463;52.324;5.122;2023-08-01T11:38:59;7.68;;;2.42;;
67274;SDS011;55463;52.324;5.122;2023-08-01T11:41:28;10.82;;;2.38;;
67274;SDS011;55463;52.324;5.122;2023-08-01T11:43:54;9.98;;;2.47;;
67274;SDS011;55463;52.324;5.122;2023-08-01T11:46:20;13.73;;;2.60;;
67274;SDS011;55463;52.324;5.122;2023-08-01T11:48:47;6.03;;;2.75;;
67274;SDS011;55463;52.324;5.122;2023-08-01T11:51:12;12.52;;;2.47;;
67274;SDS011;55463;52.324;5.122;2023-08-01T11:53:38;5.03;;;2.28;;
67274;SDS011;55463;52.324;5.122;2023-08-01T11:56:07;7.25;;;2.63;;
67274;SDS011;55463;52.324;5.122;2023-08-01T11:58:33;4.00;;;2.00;;
67274;SDS011;55463;52.324;5.122;2023-08-01T12:03:31;4.03;;;2.00;;
67274;SDS011;55463;52.324;5.122;2023-08-01T12:06:09;4.20;;;1.60;;
67274;SDS011;55463;52.324;5.122;2023-08-01T12:08:37;8.38;;;2.00;;
67274;SDS011;55463;52.324;5.122;2023-08-01T12:11:03;6.78;;;1.98;;
67274;SDS011;55463;52.324;5.122;2023-08-01T12:13:28;6.03;;;1.80;;
67274;SDS011;55463;52.324;5.122;2023-08-01T12:15:54;5.80;;;1.90;;
67274;SDS011;55463;52.324;5.122;2023-08-01T12:18:24;10.25;;;2.33;;
67274;SDS011;55463;52.324;5.122;2023-08-01T12:20:51;4.90;;;1.65;;
67274;SDS011;55463;52.324;5.122;2023-08-01T12:23:17;5.72;;;1.55;;
67274;SDS011;55463;52.324;5.122;2023-08-01T12:25:43;3.97;;;2.00;;
67274;SDS011;55463;52.324;5.122;2023-08-01T12:28:08;4.43;;;2.10;;
67274;SDS011;55463;52.324;5.122;2023-08-01T12:30:33;6.90;;;1.80;;
67274;SDS011;55463;52.324;5.122;2023-08-01T12:32:59;6.43;;;1.80;;
67274;SDS011;55463;52.324;5.122;2023-08-01T12:35:25;4.97;;;1.67;;
67274;SDS011;55463;52.324;5.122;2023-08-01T12:37:51;5.65;;;2.28;;
67274;SDS011;55463;52.324;5.122;2023-08-01T12:40:17;12.05;;;2.35;;
67274;SDS011;55463;52.324;5.122;2023-08-01T12:42:43;5.88;;;2.00;;
67274;SDS011;55463;52.324;5.122;2023-08-01T12:45:08;3.95;;;1.50;;
67274;SDS011;55463;52.324;5.122;2023-08-01T12:47:34;8.90;;;2.08;;
67274;SDS011;55463;52.324;5.122;2023-08-01T12:49:59;4.70;;;1.65;;
67274;SDS011;55463;52.324;5.122;2023-08-01T12:52:25;7.35;;;1.67;;
67274;SDS011;55463;52.324;5.122;2023-08-01T12:54:50;5.57;;;1.40;;
67274;SDS011;55463;52.324;5.122;2023-08-01T12:57:16;2.63;;;1.30;;
67274;SDS011;55463;52.324;5.122;2023-08-01T12:59:41;3.92;;;1.40;;
67274;SDS011;55463;52.324;5.122;2023-08-01T13:02:07;3.72;;;1.70;;
67274;SDS011;55463;52.324;5.122;2023-08-01T13:04:33;7.05;;;1.60;;
67274;SDS011;55463;52.324;5.122;2023-08-01T13:06:59;4.13;;;1.77;;
67274;SDS011;55463;52.324;5.122;2023-08-01T13:09:24;5.72;;;1.58;;
67274;SDS011;55463;52.324;5.122;2023-08-01T13:11:50;5.65;;;2.25;;
67274;SDS011;55463;52.324;5.122;2023-08-01T13:14:15;4.90;;;1.83;;
67274;SDS011;55463;52.324;5.122;2023-08-01T13:16:41;5.70;;;1.90;;
67274;SDS011;55463;52.324;5.122;2023-08-01T13:19:06;9.20;;;1.98;;
67274;SDS011;55463;52.324;5.122;2023-08-01T13:21:32;9.27;;;2.15;;
67274;SDS011;55463;52.324;5.122;2023-08-01T13:23:59;12.27;;;1.98;;
67274;SDS011;55463;52.324;5.122;2023-08-01T13:26:29;10.52;;;2.50;;
67274;SDS011;55463;52.324;5.122;2023-08-01T13:28:55;10.98;;;2.35;;
67274;SDS011;55463;52.324;5.122;2023-08-01T13:31:21;6.10;;;2.10;;
67274;SDS011;55463;52.324;5.122;2023-08-01T13:33:46;6.88;;;1.90;;
67274;SDS011;55463;52.324;5.122;2023-08-01T13:36:12;8.25;;;2.03;;
67274;SDS011;55463;52.324;5.122;2023-08-01T13:38:37;5.35;;;1.85;;
67274;SDS011;55463;52.324;5.122;2023-08-01T13:41:03;4.88;;;2.08;;
67274;SDS011;55463;52.324;5.122;2023-08-01T13:43:28;9.27;;;2.22;;
67274;SDS011;55463;52.324;5.122;2023-08-01T13:45:53;7.68;;;2.13;;
67274;SDS011;55463;52.324;5.122;2023-08-01T13:48:19;6.80;;;2.20;;
67274;SDS011;55463;52.324;5.122;2023-08-01T13:50:44;5.60;;;2.47;;
67274;SDS011;55463;52.324;5.122;2023-08-01T13:53:09;6.15;;;2.00;;
67274;SDS011;55463;52.324;5.122;2023-08-01T13:55:39;4.88;;;2.17;;
67274;SDS011;55463;52.324;5.122;2023-08-01T13:58:05;5.75;;;2.13;;
67274;SDS011;55463;52.324;5.122;2023-08-01T14:00:30;6.93;;;2.20;;
67274;SDS011;55463;52.324;5.122;2023-08-01T14:02:56;6.53;;;2.00;;
67274;SDS011;55463;52.324;5.122;2023-08-01T14:05:24;10.35;;;2.20;;
67274;SDS011;55463;52.324;5.122;2023-08-01T14:07:51;7.35;;;2.25;;
67274;SDS011;55463;52.324;5.122;2023-08-01T14:10:16;4.80;;;1.75;;
67274;SDS011;55463;52.324;5.122;2023-08-01T14:12:41;7.78;;;1.70;;
67274;SDS011;55463;52.324;5.122;2023-08-01T14:15:07;4.80;;;1.60;;
67274;SDS011;55463;52.324;5.122;2023-08-01T14:17:32;5.15;;;1.60;;
67274;SDS011;55463;52.324;5.122;2023-08-01T14:19:58;6.80;;;1.60;;
67274;SDS011;55463;52.324;5.122;2023-08-01T14:22:24;3.70;;;1.70;;
67274;SDS011;55463;52.324;5.122;2023-08-01T14:24:49;6.57;;;1.77;;
67274;SDS011;55463;52.324;5.122;2023-08-01T14:27:14;9.93;;;1.80;;
67274;SDS011;55463;52.324;5.122;2023-08-01T14:29:40;8.57;;;1.80;;
67274;SDS011;55463;52.324;5.122;2023-08-01T14:32:05;4.45;;;1.75;;
67274;SDS011;55463;52.324;5.122;2023-08-01T14:34:31;4.30;;;1.50;;
67274;SDS011;55463;52.324;5.122;2023-08-01T14:36:57;5.20;;;1.88;;
67274;SDS011;55463;52.324;5.122;2023-08-01T14:39:22;3.78;;;1.80;;